createdAt,value
2023-08-24T00:00:19.297Z,20.33
2023-08-24T00:00:52.053Z,20.33
2023-08-24T00:01:24.009Z,20.35
2023-08-24T00:01:55.805Z,20.33
2023-08-24T00:02:28.254Z,20.33
2023-08-24T00:03:00.135Z,20.30
2023-08-24T00:03:32.145Z,20.25
2023-08-24T00:04:04.699Z,20.24
2023-08-24T00:04:36.476Z,20.28
2023-08-24T00:05:08.340Z,20.31
2023-08-24T00:05:41.176Z,20.36
2023-08-24T00:06:13.954Z,20.30
2023-08-24T00:06:46.847Z,20.30
2023-08-24T00:07:18.649Z,20.21
2023-08-24T00:07:50.772Z,20.21
2023-08-24T00:08:23.178Z,20.26
2023-08-24T00:08:55.169Z,20.34
2023-08-24T00:09:27.689Z,20.30
2023-08-24T00:10:00.861Z,20.35
2023-08-24T00:10:33.120Z,20.26
2023-08-24T00:11:06.469Z,20.27
2023-08-24T00:11:38.410Z,20.21
2023-08-24T00:12:10.374Z,20.20
2023-08-24T00:12:42.319Z,20.17
2023-08-24T00:13:14.762Z,20.16
2023-08-24T00:13:53.229Z,20.13
2023-08-24T00:14:25.117Z,20.14
2023-08-24T00:14:56.978Z,20.17
2023-08-24T00:15:29.117Z,20.20
2023-08-24T00:16:00.963Z,20.21
2023-08-24T00:16:32.796Z,20.20
2023-08-24T00:17:04.814Z,20.22
2023-08-24T00:17:36.651Z,20.25
2023-08-24T00:18:08.596Z,20.28
2023-08-24T00:18:40.412Z,20.26
2023-08-24T00:19:12.392Z,20.28
2023-08-24T00:19:44.171Z,20.32
2023-08-24T00:20:15.961Z,20.26
2023-08-24T00:20:48.712Z,20.25
2023-08-24T00:21:24.004Z,20.26
2023-08-24T00:21:56.114Z,20.18
2023-08-24T00:22:27.860Z,20.18
2023-08-24T00:22:59.923Z,20.22
2023-08-24T00:23:32.551Z,20.17
2023-08-24T00:24:04.626Z,20.16
2023-08-24T00:24:36.373Z,20.17
2023-08-24T00:25:09.553Z,20.11
2023-08-24T00:25:44.321Z,20.13
2023-08-24T00:26:19.034Z,20.14
2023-08-24T00:26:51.033Z,20.14
2023-08-24T00:27:23.584Z,20.16
2023-08-24T00:27:55.667Z,20.16
2023-08-24T00:28:27.491Z,20.20
2023-08-24T00:28:59.339Z,20.18
2023-08-24T00:29:31.588Z,20.16
2023-08-24T00:30:08.147Z,20.10
2023-08-24T00:30:40.989Z,20.05
2023-08-24T00:31:13.133Z,20.03
2023-08-24T00:31:45.640Z,20.04
2023-08-24T00:32:18.831Z,20.09
2023-08-24T00:32:51.699Z,20.02
2023-08-24T00:33:23.634Z,20.00
2023-08-24T00:33:55.628Z,20.00
2023-08-24T00:34:30.114Z,19.97
2023-08-24T00:35:09.113Z,20.00
2023-08-24T00:35:41.275Z,19.98
2023-08-24T00:36:13.070Z,19.88
2023-08-24T00:36:45.568Z,19.83
2023-08-24T00:37:18.126Z,19.88
2023-08-24T00:37:51.824Z,19.94
2023-08-24T00:38:23.983Z,19.94
2023-08-24T00:38:56.709Z,19.97
2023-08-24T00:39:28.531Z,19.99
2023-08-24T00:40:06.972Z,19.94
2023-08-24T00:40:40.031Z,19.95
2023-08-24T00:41:13.658Z,19.97
2023-08-24T00:41:46.053Z,19.94
2023-08-24T00:42:17.826Z,19.95
2023-08-24T00:42:49.660Z,19.95
2023-08-24T00:43:25.442Z,19.91
2023-08-24T00:43:57.270Z,19.92
2023-08-24T00:44:29.082Z,19.93
2023-08-24T00:45:01.172Z,19.92
2023-08-24T00:45:34.297Z,19.90
2023-08-24T00:46:06.292Z,19.89
2023-08-24T00:46:38.086Z,19.85
2023-08-24T00:47:11.136Z,19.87
2023-08-24T00:47:46.347Z,19.83
2023-08-24T00:48:19.755Z,19.82
2023-08-24T00:48:52.986Z,19.80
2023-08-24T00:49:24.966Z,19.81
2023-08-24T00:49:57.569Z,19.72
2023-08-24T00:50:29.366Z,19.63
2023-08-24T00:51:02.874Z,19.64
2023-08-24T00:51:35.577Z,19.63
2023-08-24T00:52:07.994Z,19.68
2023-08-24T00:52:42.111Z,19.59
2023-08-24T00:53:14.844Z,19.62
2023-08-24T00:53:47.699Z,19.56
2023-08-24T00:54:20.641Z,19.57
2023-08-24T00:54:52.923Z,19.56
2023-08-24T00:55:24.905Z,19.53
2023-08-24T00:55:56.780Z,19.50
2023-08-24T00:56:31.120Z,19.47
2023-08-24T00:57:03.768Z,19.50
2023-08-24T00:57:37.152Z,19.53
2023-08-24T00:58:09.024Z,19.53
2023-08-24T00:58:41.134Z,19.56
2023-08-24T00:59:13.072Z,19.59
2023-08-24T00:59:46.620Z,19.65
2023-08-24T01:00:18.630Z,19.70
2023-08-24T01:00:52.225Z,19.75
2023-08-24T01:01:25.726Z,19.75
2023-08-24T01:01:57.667Z,19.71
2023-08-24T01:02:29.525Z,19.68
2023-08-24T01:03:01.608Z,19.65
2023-08-24T01:03:34.063Z,19.64
2023-08-24T01:04:06.451Z,19.67
2023-08-24T01:04:38.309Z,19.62
2023-08-24T01:05:10.628Z,19.57
2023-08-24T01:05:43.245Z,19.52
2023-08-24T01:06:15.015Z,19.45
2023-08-24T01:06:46.772Z,19.41
2023-08-24T01:07:19.212Z,19.43
2023-08-24T01:07:52.439Z,19.44
2023-08-24T01:08:25.221Z,19.37
2023-08-24T01:08:57.165Z,19.32
2023-08-24T01:09:31.757Z,19.33
2023-08-24T01:10:05.569Z,19.32
2023-08-24T01:10:49.399Z,19.25
2023-08-24T01:11:29.350Z,19.24
2023-08-24T01:12:12.078Z,19.30
2023-08-24T01:13:09.945Z,19.26
2023-08-24T01:14:05.482Z,19.28
2023-08-24T01:14:45.976Z,19.29
2023-08-24T01:15:33.112Z,19.28
2023-08-24T01:16:10.597Z,19.32
2023-08-24T01:16:47.387Z,19.32
2023-08-24T01:17:23.841Z,19.28
2023-08-24T01:18:00.729Z,19.28
2023-08-24T01:18:36.897Z,19.31
2023-08-24T01:19:26.583Z,19.29
2023-08-24T01:19:59.922Z,19.29
2023-08-24T01:20:35.316Z,19.31
2023-08-24T01:21:07.871Z,19.26
2023-08-24T01:21:40.347Z,19.21
2023-08-24T01:22:29.233Z,19.21
2023-08-24T01:23:25.552Z,19.23
2023-08-24T01:24:39.791Z,19.19
2023-08-24T01:25:17.361Z,19.18
2023-08-24T01:26:10.527Z,19.19
2023-08-24T01:26:43.385Z,19.26
2023-08-24T01:27:16.250Z,19.31
2023-08-24T01:27:50.356Z,19.30
2023-08-24T01:28:24.608Z,19.29
2023-08-24T01:28:57.738Z,19.30
2023-08-24T01:29:30.704Z,19.29
2023-08-24T01:30:04.908Z,19.31
2023-08-24T01:30:37.722Z,19.24
2023-08-24T01:31:10.770Z,19.24
2023-08-24T01:31:42.668Z,19.25
2023-08-24T01:32:16.576Z,19.25
2023-08-24T01:32:48.734Z,19.20
2023-08-24T01:33:22.526Z,19.21
2023-08-24T01:33:54.511Z,19.24
2023-08-24T01:34:26.558Z,19.21
2023-08-24T01:34:59.286Z,19.20
2023-08-24T01:35:33.111Z,19.18
2023-08-24T01:36:05.205Z,19.20
2023-08-24T01:36:37.894Z,19.18
2023-08-24T01:37:10.038Z,19.16
2023-08-24T01:37:42.985Z,19.18
2023-08-24T01:38:16.264Z,19.19
2023-08-24T01:38:58.358Z,19.18
2023-08-24T01:39:35.816Z,19.20
2023-08-24T01:40:27.433Z,19.21
2023-08-24T01:41:31.910Z,19.21
2023-08-24T01:42:06.896Z,19.17
2023-08-24T01:42:56.079Z,19.12
2023-08-24T01:43:43.759Z,19.09
2023-08-24T01:44:19.495Z,19.09
2023-08-24T01:44:56.700Z,19.10
2023-08-24T01:45:33.189Z,19.10
2023-08-24T01:46:06.676Z,19.06
2023-08-24T01:46:40.515Z,19.08
2023-08-24T01:47:13.469Z,19.05
2023-08-24T01:47:49.776Z,19.04
2023-08-24T01:48:23.010Z,19.07
2023-08-24T01:48:56.348Z,19.08
2023-08-24T01:49:29.553Z,19.06
2023-08-24T01:50:03.527Z,19.00
2023-08-24T01:50:36.560Z,19.01
2023-08-24T01:51:09.170Z,19.03
2023-08-24T01:51:43.284Z,19.07
2023-08-24T01:52:16.000Z,19.04
2023-08-24T01:52:48.634Z,18.99
2023-08-24T01:53:21.051Z,19.05
2023-08-24T01:53:53.693Z,19.04
2023-08-24T01:54:25.570Z,19.03
2023-08-24T01:55:00.106Z,18.99
2023-08-24T01:55:31.926Z,19.00
2023-08-24T01:56:14.251Z,19.00
2023-08-24T01:56:47.664Z,18.97
2023-08-24T01:57:19.692Z,18.97
2023-08-24T01:57:52.124Z,19.02
2023-08-24T01:58:24.229Z,19.05
2023-08-24T01:58:56.183Z,19.03
2023-08-24T01:59:28.929Z,19.00
2023-08-24T02:00:02.169Z,18.96
2023-08-24T02:00:45.640Z,18.98
2023-08-24T02:01:17.620Z,19.05
2023-08-24T02:01:49.577Z,18.95
2023-08-24T02:02:22.225Z,18.98
2023-08-24T02:02:54.135Z,19.00
2023-08-24T02:03:26.074Z,19.02
2023-08-24T02:04:00.351Z,19.02
2023-08-24T02:04:33.333Z,19.02
2023-08-24T02:05:05.475Z,19.07
2023-08-24T02:05:37.296Z,19.09
2023-08-24T02:06:09.495Z,19.03
2023-08-24T02:06:41.321Z,18.97
2023-08-24T02:07:13.120Z,18.93
2023-08-24T02:07:46.073Z,18.96
2023-08-24T02:08:18.486Z,18.91
2023-08-24T02:08:50.288Z,18.92
2023-08-24T02:09:22.125Z,18.95
2023-08-24T02:09:53.964Z,18.93
2023-08-24T02:10:25.815Z,18.88
2023-08-24T02:10:57.692Z,18.82
2023-08-24T02:11:30.763Z,18.77
2023-08-24T02:12:03.717Z,18.81
2023-08-24T02:12:35.666Z,18.88
2023-08-24T02:13:08.475Z,18.82
2023-08-24T02:13:40.300Z,18.79
2023-08-24T02:14:12.130Z,18.79
2023-08-24T02:14:44.028Z,18.72
2023-08-24T02:15:16.558Z,18.66
2023-08-24T02:15:49.440Z,18.70
2023-08-24T02:16:21.335Z,18.74
2023-08-24T02:16:53.175Z,18.69
2023-08-24T02:17:25.026Z,18.71
2023-08-24T02:17:56.959Z,18.78
2023-08-24T02:18:29.527Z,18.72
2023-08-24T02:19:03.104Z,18.71
2023-08-24T02:19:36.164Z,18.64
2023-08-24T02:20:09.842Z,18.64
2023-08-24T02:20:41.692Z,18.65
2023-08-24T02:21:15.265Z,18.69
2023-08-24T02:21:47.734Z,18.72
2023-08-24T02:22:19.544Z,18.67
2023-08-24T02:22:51.434Z,18.61
2023-08-24T02:23:23.554Z,18.69
2023-08-24T02:23:55.525Z,18.67
2023-08-24T02:24:28.049Z,18.65
2023-08-24T02:25:00.452Z,18.64
2023-08-24T02:25:32.843Z,18.67
2023-08-24T02:26:05.762Z,18.67
2023-08-24T02:26:37.596Z,18.56
2023-08-24T02:27:09.722Z,18.59
2023-08-24T02:27:42.536Z,18.68
2023-08-24T02:28:14.428Z,18.70
2023-08-24T02:28:46.280Z,18.75
2023-08-24T02:29:19.171Z,18.73
2023-08-24T02:29:51.476Z,18.74
2023-08-24T02:30:23.521Z,18.71
2023-08-24T02:30:55.350Z,18.73
2023-08-24T02:31:27.118Z,18.67
2023-08-24T02:32:01.151Z,18.66
2023-08-24T02:32:33.060Z,18.58
2023-08-24T02:33:06.902Z,18.63
2023-08-24T02:33:38.741Z,18.65
2023-08-24T02:34:10.594Z,18.68
2023-08-24T02:34:42.449Z,18.67
2023-08-24T02:35:14.376Z,18.69
2023-08-24T02:35:50.380Z,18.60
2023-08-24T02:36:22.241Z,18.67
2023-08-24T02:36:54.458Z,18.69
2023-08-24T02:37:26.343Z,18.71
2023-08-24T02:37:58.723Z,18.65
2023-08-24T02:38:30.510Z,18.60
2023-08-24T02:39:02.272Z,18.65
2023-08-24T02:39:34.130Z,18.60
2023-08-24T02:40:07.118Z,18.58
2023-08-24T02:40:40.542Z,18.58
2023-08-24T02:41:13.501Z,18.55
2023-08-24T02:41:46.638Z,18.52
2023-08-24T02:42:18.392Z,18.50
2023-08-24T02:42:50.431Z,18.53
2023-08-24T02:43:22.233Z,18.54
2023-08-24T02:43:54.441Z,18.57
2023-08-24T02:44:27.644Z,18.54
2023-08-24T02:44:59.904Z,18.49
2023-08-24T02:45:31.688Z,18.58
2023-08-24T02:46:05.256Z,18.67
2023-08-24T02:46:37.492Z,18.65
2023-08-24T02:47:09.281Z,18.64
2023-08-24T02:47:41.125Z,18.63
2023-08-24T02:48:13.455Z,18.63
2023-08-24T02:48:46.863Z,18.55
2023-08-24T02:49:19.326Z,18.54
2023-08-24T02:49:51.426Z,18.54
2023-08-24T02:50:23.425Z,18.50
2023-08-24T02:50:56.110Z,18.47
2023-08-24T02:51:27.916Z,18.44
2023-08-24T02:51:59.685Z,18.43
2023-08-24T02:52:33.441Z,18.46
2023-08-24T02:53:05.252Z,18.47
2023-08-24T02:53:37.611Z,18.47
2023-08-24T02:54:10.421Z,18.40
2023-08-24T02:54:42.234Z,18.39
2023-08-24T02:55:14.142Z,18.43
2023-08-24T02:55:47.372Z,18.41
2023-08-24T02:56:19.250Z,18.45
2023-08-24T02:56:51.032Z,18.48
2023-08-24T02:57:22.797Z,18.57
2023-08-24T02:57:54.579Z,18.54
2023-08-24T02:58:27.941Z,18.57
2023-08-24T02:59:00.399Z,18.54
2023-08-24T02:59:33.071Z,18.53
2023-08-24T03:00:07.908Z,18.55
2023-08-24T03:00:40.004Z,18.56
2023-08-24T03:01:11.976Z,18.58
2023-08-24T03:01:44.596Z,18.57
2023-08-24T03:02:16.427Z,18.56
2023-08-24T03:02:48.296Z,18.50
2023-08-24T03:03:20.650Z,18.49
2023-08-24T03:03:52.591Z,18.49
2023-08-24T03:04:24.532Z,18.54
2023-08-24T03:04:57.869Z,18.47
2023-08-24T03:05:31.180Z,18.46
2023-08-24T03:06:05.465Z,18.46
2023-08-24T03:06:37.404Z,18.46
2023-08-24T03:07:11.429Z,18.43
2023-08-24T03:07:43.244Z,18.46
2023-08-24T03:08:15.339Z,18.49
2023-08-24T03:08:47.199Z,18.45
2023-08-24T03:09:19.166Z,18.41
2023-08-24T03:09:51.031Z,18.42
2023-08-24T03:10:23.989Z,18.34
2023-08-24T03:10:55.821Z,18.34
2023-08-24T03:11:28.343Z,18.39
2023-08-24T03:12:00.136Z,18.38
2023-08-24T03:12:32.373Z,18.37
2023-08-24T03:13:05.117Z,18.40
2023-08-24T03:13:41.700Z,18.39
2023-08-24T03:14:13.544Z,18.41
2023-08-24T03:14:47.035Z,18.39
2023-08-24T03:15:18.974Z,18.41
2023-08-24T03:15:51.031Z,18.44
2023-08-24T03:16:23.054Z,18.47
2023-08-24T03:16:54.901Z,18.45
2023-08-24T03:17:27.261Z,18.44
2023-08-24T03:17:59.150Z,18.46
2023-08-24T03:18:32.599Z,18.49
2023-08-24T03:19:04.917Z,18.50
2023-08-24T03:19:36.784Z,18.46
2023-08-24T03:20:09.656Z,18.40
2023-08-24T03:20:42.851Z,18.40
2023-08-24T03:21:14.644Z,18.45
2023-08-24T03:21:46.694Z,18.42
2023-08-24T03:22:18.543Z,18.40
2023-08-24T03:22:50.331Z,18.47
2023-08-24T03:23:23.182Z,18.50
2023-08-24T03:23:55.787Z,18.49
2023-08-24T03:24:27.555Z,18.47
2023-08-24T03:24:59.335Z,18.49
2023-08-24T03:25:32.510Z,18.44
2023-08-24T03:26:04.534Z,18.36
2023-08-24T03:26:36.381Z,18.37
2023-08-24T03:27:08.214Z,18.31
2023-08-24T03:27:40.141Z,18.25
2023-08-24T03:28:13.875Z,18.31
2023-08-24T03:28:45.669Z,18.37
2023-08-24T03:29:17.459Z,18.36
2023-08-24T03:29:49.221Z,18.34
2023-08-24T03:30:23.714Z,18.38
2023-08-24T03:30:56.849Z,18.40
2023-08-24T03:31:28.909Z,18.40
2023-08-24T03:32:00.797Z,18.39
2023-08-24T03:32:33.447Z,18.42
2023-08-24T03:33:06.044Z,18.43
2023-08-24T03:33:37.986Z,18.44
2023-08-24T03:34:09.994Z,18.43
2023-08-24T03:34:41.860Z,18.42
2023-08-24T03:35:13.687Z,18.37
2023-08-24T03:35:45.471Z,18.39
2023-08-24T03:36:17.384Z,18.33
2023-08-24T03:36:50.868Z,18.40
2023-08-24T03:37:25.302Z,18.32
2023-08-24T03:37:57.522Z,18.32
2023-08-24T03:38:30.330Z,18.35
2023-08-24T03:39:02.962Z,18.29
2023-08-24T03:39:38.531Z,18.33
2023-08-24T03:40:10.722Z,18.32
2023-08-24T03:40:43.405Z,18.29
2023-08-24T03:41:16.160Z,18.34
2023-08-24T03:41:48.062Z,18.34
2023-08-24T03:42:20.246Z,18.29
2023-08-24T03:42:52.370Z,18.33
2023-08-24T03:43:24.251Z,18.32
2023-08-24T03:43:56.057Z,18.37
2023-08-24T03:44:28.100Z,18.40
2023-08-24T03:45:00.900Z,18.37
2023-08-24T03:45:33.487Z,18.37
2023-08-24T03:46:06.958Z,18.30
2023-08-24T03:46:39.011Z,18.31
2023-08-24T03:47:16.712Z,18.37
2023-08-24T03:47:51.189Z,18.32
2023-08-24T03:48:23.194Z,18.34
2023-08-24T03:48:55.167Z,18.38
2023-08-24T03:49:27.227Z,18.33
2023-08-24T03:50:00.286Z,18.26
2023-08-24T03:50:33.277Z,18.29
2023-08-24T03:51:05.083Z,18.26
2023-08-24T03:51:37.219Z,18.21
2023-08-24T03:52:10.319Z,18.19
2023-08-24T03:52:43.425Z,18.17
2023-08-24T03:53:15.210Z,18.25
2023-08-24T03:53:47.155Z,18.19
2023-08-24T03:54:19.525Z,18.19
2023-08-24T03:54:51.456Z,18.18
2023-08-24T03:55:24.042Z,18.20
2023-08-24T03:55:56.093Z,18.22
2023-08-24T03:56:27.957Z,18.23
2023-08-24T03:57:00.342Z,18.13
2023-08-24T03:57:32.167Z,18.11
2023-08-24T03:58:04.437Z,18.19
2023-08-24T03:58:38.031Z,18.17
2023-08-24T03:59:10.611Z,18.10
2023-08-24T03:59:43.104Z,18.16
2023-08-24T04:00:15.436Z,18.13
2023-08-24T04:00:48.174Z,18.15
2023-08-24T04:01:20.541Z,18.23
2023-08-24T04:01:52.429Z,18.26
2023-08-24T04:02:24.739Z,18.30
2023-08-24T04:02:57.679Z,18.34
2023-08-24T04:03:31.918Z,18.36
2023-08-24T04:04:05.095Z,18.38
2023-08-24T04:04:37.708Z,18.37
2023-08-24T04:05:09.730Z,18.34
2023-08-24T04:05:42.501Z,18.37
2023-08-24T04:06:15.875Z,18.38
2023-08-24T04:06:50.445Z,18.34
2023-08-24T04:07:22.244Z,18.36
2023-08-24T04:07:54.141Z,18.37
2023-08-24T04:08:26.109Z,18.34
2023-08-24T04:08:58.335Z,18.31
2023-08-24T04:09:30.149Z,18.27
2023-08-24T04:10:01.981Z,18.32
2023-08-24T04:10:34.509Z,18.31
2023-08-24T04:11:06.302Z,18.39
2023-08-24T04:11:38.079Z,18.41
2023-08-24T04:12:09.881Z,18.36
2023-08-24T04:12:41.639Z,18.37
2023-08-24T04:13:13.493Z,18.41
2023-08-24T04:13:45.287Z,18.38
2023-08-24T04:14:17.962Z,18.29
2023-08-24T04:14:50.166Z,18.31
2023-08-24T04:15:22.248Z,18.28
2023-08-24T04:15:55.508Z,18.31
2023-08-24T04:16:27.365Z,18.27
2023-08-24T04:16:59.418Z,18.33
2023-08-24T04:17:31.318Z,18.25
2023-08-24T04:18:03.628Z,18.35
2023-08-24T04:18:36.956Z,18.32
2023-08-24T04:19:09.801Z,18.31
2023-08-24T04:19:41.695Z,18.37
2023-08-24T04:20:13.737Z,18.39
2023-08-24T04:20:45.489Z,18.40
2023-08-24T04:21:17.251Z,18.37
2023-08-24T04:21:49.080Z,18.31
2023-08-24T04:22:20.905Z,18.31
2023-08-24T04:22:52.668Z,18.29
2023-08-24T04:23:28.338Z,18.33
2023-08-24T04:24:00.372Z,18.39
2023-08-24T04:24:32.306Z,18.32
2023-08-24T04:25:05.533Z,18.26
2023-08-24T04:25:41.035Z,18.22
2023-08-24T04:26:13.418Z,18.24
2023-08-24T04:26:45.180Z,18.29
2023-08-24T04:27:17.052Z,18.34
2023-08-24T04:27:50.898Z,18.32
2023-08-24T04:28:22.941Z,18.34
2023-08-24T04:28:54.791Z,18.33
2023-08-24T04:29:26.596Z,18.27
2023-08-24T04:29:58.578Z,18.23
2023-08-24T04:30:30.987Z,18.26
2023-08-24T04:31:03.339Z,18.22
2023-08-24T04:31:36.182Z,18.24
2023-08-24T04:32:09.300Z,18.22
2023-08-24T04:32:41.214Z,18.20
2023-08-24T04:33:13.300Z,18.19
2023-08-24T04:33:45.086Z,18.19
2023-08-24T04:34:16.913Z,18.25
2023-08-24T04:34:48.843Z,18.19
2023-08-24T04:35:21.523Z,18.20
2023-08-24T04:35:53.308Z,18.14
2023-08-24T04:36:26.393Z,18.11
2023-08-24T04:36:58.201Z,18.06
2023-08-24T04:37:30.041Z,18.06
2023-08-24T04:38:01.785Z,18.08
2023-08-24T04:38:33.588Z,18.13
2023-08-24T04:39:06.294Z,18.07
2023-08-24T04:39:38.652Z,18.04
2023-08-24T04:40:12.218Z,18.10
2023-08-24T04:40:52.394Z,18.14
2023-08-24T04:41:24.262Z,18.06
2023-08-24T04:41:56.264Z,18.07
2023-08-24T04:42:28.088Z,18.12
2023-08-24T04:43:00.251Z,18.13
2023-08-24T04:43:32.133Z,18.14
2023-08-24T04:44:04.092Z,18.19
2023-08-24T04:44:35.943Z,18.16
2023-08-24T04:45:08.670Z,18.17
2023-08-24T04:45:40.438Z,18.11
2023-08-24T04:46:12.269Z,18.09
2023-08-24T04:46:44.329Z,18.11
2023-08-24T04:47:16.269Z,18.23
2023-08-24T04:47:48.096Z,18.28
2023-08-24T04:48:25.804Z,18.26
2023-08-24T04:48:57.609Z,18.21
2023-08-24T04:49:31.472Z,18.27
2023-08-24T04:50:03.316Z,18.32
2023-08-24T04:50:35.118Z,18.27
2023-08-24T04:51:06.910Z,18.26
2023-08-24T04:51:39.075Z,18.23
2023-08-24T04:52:10.896Z,18.23
2023-08-24T04:52:42.650Z,18.21
2023-08-24T04:53:16.107Z,18.19
2023-08-24T04:53:47.873Z,18.18
2023-08-24T04:54:19.692Z,18.20
2023-08-24T04:54:51.446Z,18.24
2023-08-24T04:55:24.325Z,18.32
2023-08-24T04:55:56.219Z,18.43
2023-08-24T04:56:28.086Z,18.49
2023-08-24T04:57:00.228Z,18.51
2023-08-24T04:57:32.258Z,18.54
2023-08-24T04:58:04.282Z,18.52
2023-08-24T04:58:36.076Z,18.51
2023-08-24T04:59:08.928Z,18.53
2023-08-24T04:59:40.926Z,18.43
2023-08-24T05:00:17.210Z,18.46
2023-08-24T05:00:50.000Z,18.50
2023-08-24T05:01:22.298Z,18.53
2023-08-24T05:01:54.112Z,18.42
2023-08-24T05:02:26.439Z,18.37
2023-08-24T05:02:59.283Z,18.40
2023-08-24T05:03:31.081Z,18.45
2023-08-24T05:04:02.919Z,18.52
2023-08-24T05:04:34.754Z,18.55
2023-08-24T05:05:07.678Z,18.51
2023-08-24T05:05:39.666Z,18.54
2023-08-24T05:06:11.515Z,18.57
2023-08-24T05:06:43.367Z,18.60
2023-08-24T05:07:15.152Z,18.61
2023-08-24T05:07:47.295Z,18.60
2023-08-24T05:08:19.280Z,18.60
2023-08-24T05:08:51.101Z,18.67
2023-08-24T05:09:23.841Z,18.73
2023-08-24T05:09:55.878Z,18.76
2023-08-24T05:10:32.516Z,18.82
2023-08-24T05:11:15.495Z,18.74
2023-08-24T05:11:47.296Z,18.76
2023-08-24T05:12:19.160Z,18.82
2023-08-24T05:12:50.963Z,18.84
2023-08-24T05:13:23.771Z,18.83
2023-08-24T05:13:57.063Z,19.00
2023-08-24T05:14:29.271Z,19.01
2023-08-24T05:15:01.228Z,19.04
2023-08-24T05:15:33.113Z,19.13
2023-08-24T05:16:05.254Z,19.12
2023-08-24T05:16:37.156Z,19.25
2023-08-24T05:17:08.939Z,19.20
2023-08-24T05:17:41.425Z,19.22
2023-08-24T05:18:14.480Z,19.18
2023-08-24T05:18:47.214Z,19.16
2023-08-24T05:19:19.104Z,19.13
2023-08-24T05:19:55.319Z,19.14
2023-08-24T05:20:28.090Z,19.29
2023-08-24T05:21:00.253Z,19.26
2023-08-24T05:21:32.047Z,19.17
2023-08-24T05:22:03.838Z,19.28
2023-08-24T05:22:36.001Z,19.25
2023-08-24T05:23:07.786Z,19.29
2023-08-24T05:23:39.630Z,19.21
2023-08-24T05:24:11.502Z,19.17
2023-08-24T05:24:43.325Z,19.29
2023-08-24T05:25:17.495Z,19.43
2023-08-24T05:25:50.263Z,19.53
2023-08-24T05:26:25.458Z,19.67
2023-08-24T05:26:57.249Z,19.77
2023-08-24T05:27:29.018Z,19.76
2023-08-24T05:28:00.905Z,19.82
2023-08-24T05:28:33.278Z,19.67
2023-08-24T05:29:06.472Z,19.84
2023-08-24T05:29:39.556Z,19.87
2023-08-24T05:30:12.612Z,19.85
2023-08-24T05:30:45.279Z,19.83
2023-08-24T05:31:20.147Z,19.87
2023-08-24T05:31:53.136Z,20.01
2023-08-24T05:32:25.166Z,19.96
2023-08-24T05:32:57.021Z,19.89
2023-08-24T05:33:32.025Z,20.02
2023-08-24T05:34:04.138Z,20.05
2023-08-24T05:34:35.919Z,19.99
2023-08-24T05:35:09.677Z,20.09
2023-08-24T05:35:41.969Z,20.19
2023-08-24T05:36:13.976Z,20.14
2023-08-24T05:36:46.203Z,20.15
2023-08-24T05:37:17.996Z,20.13
2023-08-24T05:37:50.119Z,20.29
2023-08-24T05:38:22.436Z,20.23
2023-08-24T05:39:05.485Z,20.24
2023-08-24T05:39:38.483Z,20.35
2023-08-24T05:40:10.783Z,20.58
2023-08-24T05:40:48.205Z,20.73
2023-08-24T05:41:20.226Z,20.74
2023-08-24T05:41:53.414Z,20.70
2023-08-24T05:42:25.219Z,20.53
2023-08-24T05:42:57.086Z,20.52
2023-08-24T05:43:29.297Z,20.64
2023-08-24T05:44:01.199Z,20.69
2023-08-24T05:44:34.136Z,20.63
2023-08-24T05:45:06.887Z,20.48
2023-08-24T05:45:40.993Z,20.47
2023-08-24T05:46:13.052Z,20.61
2023-08-24T05:46:45.275Z,20.92
2023-08-24T05:47:17.118Z,21.04
2023-08-24T05:47:49.275Z,21.01
2023-08-24T05:48:22.241Z,21.05
2023-08-24T05:48:54.211Z,20.83
2023-08-24T05:49:26.006Z,20.76
2023-08-24T05:49:57.800Z,20.85
2023-08-24T05:50:29.622Z,20.94
2023-08-24T05:51:01.451Z,21.05
2023-08-24T05:51:33.254Z,21.14
2023-08-24T05:52:05.162Z,21.10
2023-08-24T05:52:39.380Z,21.10
2023-08-24T05:53:11.971Z,21.31
2023-08-24T05:53:43.805Z,21.12
2023-08-24T05:54:19.513Z,21.17
2023-08-24T05:54:51.281Z,21.44
2023-08-24T05:55:23.037Z,21.55
2023-08-24T05:55:58.651Z,21.78
2023-08-24T05:56:30.531Z,21.49
2023-08-24T05:57:02.338Z,21.58
2023-08-24T05:57:34.226Z,21.68
2023-08-24T05:58:06.336Z,21.88
2023-08-24T05:58:38.083Z,21.77
2023-08-24T05:59:09.864Z,21.71
2023-08-24T05:59:41.693Z,21.60
2023-08-24T06:00:14.760Z,21.63
2023-08-24T06:00:56.124Z,21.63
2023-08-24T06:01:28.120Z,21.65
2023-08-24T06:01:59.979Z,21.71
2023-08-24T06:02:32.045Z,21.60
2023-08-24T06:03:04.901Z,21.53
2023-08-24T06:03:36.806Z,21.43
2023-08-24T06:04:10.411Z,21.46
2023-08-24T06:04:43.905Z,21.54
2023-08-24T06:05:16.396Z,21.48
2023-08-24T06:05:48.234Z,21.59
2023-08-24T06:06:20.065Z,21.80
2023-08-24T06:06:53.113Z,21.79
2023-08-24T06:07:25.185Z,21.97
2023-08-24T06:07:57.008Z,22.07
2023-08-24T06:08:29.190Z,22.15
2023-08-24T06:09:01.011Z,22.20
2023-08-24T06:09:33.081Z,22.19
2023-08-24T06:10:05.362Z,22.21
2023-08-24T06:10:38.208Z,22.05
2023-08-24T06:11:10.262Z,21.99
2023-08-24T06:11:42.287Z,21.80
2023-08-24T06:12:14.398Z,21.58
2023-08-24T06:12:46.156Z,21.60
2023-08-24T06:13:17.939Z,21.50
2023-08-24T06:13:50.387Z,21.55
2023-08-24T06:14:22.455Z,21.53
2023-08-24T06:14:56.195Z,21.55
2023-08-24T06:15:29.494Z,21.67
2023-08-24T06:16:03.016Z,21.72
2023-08-24T06:16:35.907Z,21.74
2023-08-24T06:17:07.735Z,21.82
2023-08-24T06:17:39.545Z,21.81
2023-08-24T06:18:11.408Z,21.68
2023-08-24T06:18:44.207Z,21.66
2023-08-24T06:19:16.239Z,21.60
2023-08-24T06:19:48.044Z,21.72
2023-08-24T06:20:21.409Z,21.67
2023-08-24T06:20:57.223Z,21.75
2023-08-24T06:21:29.054Z,21.66
2023-08-24T06:22:00.823Z,21.56
2023-08-24T06:22:32.650Z,21.51
2023-08-24T06:23:04.492Z,21.50
2023-08-24T06:23:36.323Z,21.64
2023-08-24T06:24:08.139Z,21.79
2023-08-24T06:24:40.173Z,21.85
2023-08-24T06:25:12.012Z,21.74
2023-08-24T06:25:44.457Z,21.67
2023-08-24T06:26:16.245Z,21.84
2023-08-24T06:26:48.013Z,22.02
2023-08-24T06:27:19.845Z,21.99
2023-08-24T06:27:51.872Z,22.02
2023-08-24T06:28:23.862Z,21.85
2023-08-24T06:28:56.842Z,22.01
2023-08-24T06:29:30.381Z,22.06
2023-08-24T06:30:04.553Z,22.06
2023-08-24T06:30:40.530Z,22.13
2023-08-24T06:31:12.495Z,22.23
2023-08-24T06:31:44.377Z,22.34
2023-08-24T06:32:17.146Z,22.10
2023-08-24T06:32:48.933Z,22.14
2023-08-24T06:33:21.117Z,22.33
2023-08-24T06:33:54.106Z,22.70
2023-08-24T06:34:26.075Z,22.85
2023-08-24T06:34:58.205Z,22.90
2023-08-24T06:35:30.409Z,23.08
2023-08-24T06:36:13.208Z,23.21
2023-08-24T06:36:45.145Z,23.54
2023-08-24T06:37:16.899Z,23.45
2023-08-24T06:37:49.378Z,23.70
2023-08-24T06:38:21.504Z,24.00
2023-08-24T06:38:54.156Z,24.11
2023-08-24T06:39:26.047Z,24.32
2023-08-24T06:39:57.987Z,24.62
2023-08-24T06:40:30.513Z,24.63
2023-08-24T06:41:03.194Z,24.88
2023-08-24T06:41:36.174Z,24.52
2023-08-24T06:42:12.740Z,24.98
2023-08-24T06:42:44.626Z,25.44
2023-08-24T06:43:16.430Z,25.26
2023-08-24T06:43:48.375Z,25.63
2023-08-24T06:44:20.212Z,25.85
2023-08-24T06:44:52.049Z,25.76
2023-08-24T06:45:24.137Z,25.61
2023-08-24T06:45:56.842Z,25.50
2023-08-24T06:46:28.983Z,25.51
2023-08-24T06:47:04.453Z,25.36
2023-08-24T06:47:37.879Z,25.26
2023-08-24T06:48:09.751Z,25.79
2023-08-24T06:48:44.339Z,25.82
2023-08-24T06:49:16.198Z,26.16
2023-08-24T06:49:48.151Z,26.11
2023-08-24T06:50:23.137Z,25.94
2023-08-24T06:50:54.980Z,26.25
2023-08-24T06:51:28.154Z,26.22
2023-08-24T06:52:00.266Z,25.40
2023-08-24T06:52:32.138Z,26.09
2023-08-24T06:53:06.407Z,26.63
2023-08-24T06:53:38.260Z,26.76
2023-08-24T06:54:10.157Z,26.73
2023-08-24T06:54:42.025Z,26.65
2023-08-24T06:55:14.142Z,26.78
2023-08-24T06:55:46.097Z,26.84
2023-08-24T06:56:18.728Z,27.08
2023-08-24T06:56:50.593Z,27.20
2023-08-24T06:57:22.646Z,26.77
2023-08-24T06:57:54.526Z,26.75
2023-08-24T06:58:26.582Z,27.06
2023-08-24T06:58:58.720Z,26.97
2023-08-24T06:59:30.615Z,27.01
2023-08-24T07:00:07.380Z,26.93
2023-08-24T07:00:39.199Z,27.01
2023-08-24T07:01:12.216Z,27.38
2023-08-24T07:01:44.468Z,27.49
2023-08-24T07:02:18.813Z,27.18
2023-08-24T07:02:51.632Z,27.59
2023-08-24T07:03:23.517Z,27.52
2023-08-24T07:03:56.198Z,27.48
2023-08-24T07:04:28.953Z,27.04
2023-08-24T07:05:02.027Z,27.26
2023-08-24T07:05:35.990Z,27.56
2023-08-24T07:06:08.664Z,27.78